createdAt,value
2022-08-25T00:02:00.879Z,4.97
2022-08-25T00:04:31.743Z,6.00
2022-08-25T00:07:03.123Z,5.95
2022-08-25T00:09:32.072Z,5.68
2022-08-25T00:11:59.095Z,5.47
2022-08-25T00:14:36.031Z,5.68
2022-08-25T00:17:04.758Z,5.82
2022-08-25T00:19:37.138Z,5.57
2022-08-25T00:22:07.723Z,5.50
2022-08-25T00:24:34.347Z,5.60
2022-08-25T00:27:03.112Z,5.68
2022-08-25T00:29:31.287Z,5.50
2022-08-25T00:32:00.581Z,5.32
2022-08-25T00:34:34.293Z,4.90
2022-08-25T00:39:32.607Z,5.05
2022-08-25T00:42:00.065Z,5.10
2022-08-25T00:44:31.038Z,5.45
2022-08-25T00:47:01.903Z,4.65
2022-08-25T00:49:28.383Z,4.72
2022-08-25T00:52:08.717Z,5.35
2022-08-25T00:54:40.990Z,5.30
2022-08-25T00:57:10.789Z,5.10
2022-08-25T00:59:37.493Z,5.28
2022-08-25T01:02:10.199Z,4.82
2022-08-25T01:04:45.876Z,5.10
2022-08-25T01:07:19.228Z,5.40
2022-08-25T01:09:48.074Z,4.82
2022-08-25T01:12:17.047Z,5.30
2022-08-25T01:14:46.647Z,5.28
2022-08-25T01:17:14.179Z,5.38
2022-08-25T01:19:41.076Z,5.05
2022-08-25T01:22:11.160Z,5.53
2022-08-25T01:25:02.040Z,5.18
2022-08-25T01:27:28.509Z,5.45
2022-08-25T01:29:55.047Z,5.35
2022-08-25T01:32:21.601Z,5.25
2022-08-25T01:34:48.304Z,5.38
2022-08-25T01:37:20.646Z,5.03
2022-08-25T01:39:47.459Z,5.00
2022-08-25T01:42:24.889Z,5.35
2022-08-25T01:44:51.478Z,4.97
2022-08-25T01:47:18.524Z,5.63
2022-08-25T01:49:49.854Z,5.18
2022-08-25T01:52:25.682Z,5.53
2022-08-25T01:54:54.735Z,5.50
2022-08-25T01:57:23.481Z,5.88
2022-08-25T01:59:50.555Z,5.65
2022-08-25T02:02:19.220Z,5.60
2022-08-25T02:04:49.596Z,5.30
2022-08-25T02:07:17.578Z,5.32
2022-08-25T02:09:44.369Z,5.40
2022-08-25T02:12:11.018Z,5.55
2022-08-25T02:14:37.924Z,5.60
2022-08-25T02:17:07.975Z,6.10
2022-08-25T02:19:34.584Z,5.65
2022-08-25T02:22:01.717Z,5.70
2022-08-25T02:24:31.423Z,5.68
2022-08-25T02:26:58.215Z,5.65
2022-08-25T02:29:27.081Z,5.80
2022-08-25T02:31:53.657Z,5.97
2022-08-25T02:34:20.762Z,6.07
2022-08-25T02:36:47.208Z,6.18
2022-08-25T02:39:13.890Z,6.07
2022-08-25T02:41:40.662Z,5.85
2022-08-25T02:44:08.197Z,5.93
2022-08-25T02:46:36.274Z,5.90
2022-08-25T02:49:03.894Z,5.50
2022-08-25T02:51:33.604Z,5.63
2022-08-25T02:54:02.454Z,6.00
2022-08-25T02:56:31.078Z,5.93
2022-08-25T02:58:58.627Z,5.35
2022-08-25T03:01:28.456Z,5.55
2022-08-25T03:03:56.483Z,5.72
2022-08-25T03:06:24.304Z,5.43
2022-08-25T03:08:51.928Z,5.32
2022-08-25T03:11:19.165Z,5.55
2022-08-25T03:13:46.136Z,6.18
2022-08-25T03:16:12.979Z,6.22
2022-08-25T03:18:42.107Z,6.13
2022-08-25T03:21:11.455Z,5.88
2022-08-25T03:23:39.621Z,5.90
2022-08-25T03:26:24.865Z,6.15
2022-08-25T03:28:51.382Z,5.38
2022-08-25T03:31:18.441Z,6.00
2022-08-25T03:33:47.536Z,5.85
2022-08-25T03:36:14.591Z,5.90
2022-08-25T03:38:41.734Z,6.55
2022-08-25T03:41:16.127Z,6.47
2022-08-25T03:43:43.750Z,5.95
2022-08-25T03:46:20.132Z,6.38
2022-08-25T03:48:46.887Z,5.68
2022-08-25T03:51:19.495Z,5.55
2022-08-25T03:53:48.421Z,5.85
2022-08-25T03:56:14.924Z,6.35
2022-08-25T03:58:41.413Z,6.50
2022-08-25T04:01:10.553Z,5.93
2022-08-25T04:03:37.093Z,6.20
2022-08-25T04:06:05.673Z,6.00
2022-08-25T04:08:32.650Z,6.78
2022-08-25T04:10:59.809Z,6.50
2022-08-25T04:13:26.350Z,6.60
2022-08-25T04:15:52.839Z,6.35
2022-08-25T04:18:21.937Z,6.35
2022-08-25T04:20:48.413Z,5.72
2022-08-25T04:23:15.148Z,6.18
2022-08-25T04:25:42.448Z,5.82
2022-08-25T04:28:10.253Z,6.65
2022-08-25T04:30:41.748Z,6.03
2022-08-25T04:33:08.195Z,6.32
2022-08-25T04:35:34.715Z,6.13
2022-08-25T04:38:01.201Z,6.32
2022-08-25T04:40:29.135Z,6.13
2022-08-25T04:42:56.019Z,6.40
2022-08-25T04:45:22.630Z,6.32
2022-08-25T04:47:54.330Z,5.85
2022-08-25T04:50:21.389Z,6.40
2022-08-25T04:52:49.337Z,6.10
2022-08-25T04:55:16.090Z,6.78
2022-08-25T04:57:43.327Z,7.07
2022-08-25T05:00:10.512Z,6.68
2022-08-25T05:02:37.021Z,6.80
2022-08-25T05:05:04.177Z,6.35
2022-08-25T05:07:30.762Z,6.95
2022-08-25T05:09:57.237Z,6.32
2022-08-25T05:12:23.725Z,6.72
2022-08-25T05:14:55.551Z,7.00
2022-08-25T05:17:22.549Z,6.95
2022-08-25T05:19:49.168Z,6.93
2022-08-25T05:22:15.664Z,6.70
2022-08-25T05:24:44.984Z,7.38
2022-08-25T05:27:11.470Z,6.78
2022-08-25T05:29:38.018Z,6.85
2022-08-25T05:32:04.583Z,6.65
2022-08-25T05:34:31.164Z,6.70
2022-08-25T05:37:03.233Z,6.43
2022-08-25T05:39:33.746Z,6.65
2022-08-25T05:42:00.337Z,6.90
2022-08-25T05:44:27.160Z,7.78
2022-08-25T05:46:53.668Z,7.60
2022-08-25T05:49:22.410Z,8.27
2022-08-25T05:51:48.909Z,8.07
2022-08-25T05:54:15.918Z,8.57
2022-08-25T05:56:42.377Z,9.63
2022-08-25T05:59:09.712Z,9.27
2022-08-25T06:01:55.178Z,10.18
2022-08-25T06:04:22.585Z,10.20
2022-08-25T06:06:49.873Z,10.55
2022-08-25T06:09:16.345Z,9.85
2022-08-25T06:11:43.002Z,10.30
2022-08-25T06:14:10.660Z,10.70
2022-08-25T06:16:39.052Z,11.25
2022-08-25T06:19:07.241Z,10.40
2022-08-25T06:21:33.724Z,11.40
2022-08-25T06:24:01.280Z,11.13
2022-08-25T06:26:27.827Z,11.90
2022-08-25T06:28:54.658Z,11.18
2022-08-25T06:31:22.366Z,11.77
2022-08-25T06:33:50.207Z,10.95
2022-08-25T06:36:17.178Z,11.68
2022-08-25T06:38:43.709Z,12.07
2022-08-25T06:41:13.923Z,12.13
2022-08-25T06:43:48.995Z,11.07
2022-08-25T06:46:35.748Z,10.52
2022-08-25T06:49:03.018Z,10.57
2022-08-25T06:51:29.925Z,9.77
2022-08-25T06:53:56.431Z,10.25
2022-08-25T06:56:25.791Z,9.90
2022-08-25T06:58:53.207Z,9.38
2022-08-25T07:01:26.968Z,9.45
2022-08-25T07:06:33.074Z,8.02
2022-08-25T07:09:02.300Z,8.13
2022-08-25T07:11:29.324Z,7.80
2022-08-25T07:13:55.787Z,7.50
2022-08-25T07:16:27.169Z,7.57
2022-08-25T07:18:56.684Z,6.95
2022-08-25T07:21:28.911Z,7.15
2022-08-25T07:24:03.323Z,6.43
2022-08-25T07:26:38.747Z,6.75
2022-08-25T07:29:15.416Z,6.57
2022-08-25T07:31:42.633Z,7.10
2022-08-25T07:34:28.607Z,5.80
2022-08-25T07:36:56.763Z,6.13
2022-08-25T07:39:25.007Z,6.30
2022-08-25T07:41:52.680Z,6.53
2022-08-25T07:44:21.318Z,6.13
2022-08-25T07:46:48.628Z,5.35
2022-08-25T07:49:17.354Z,5.93
2022-08-25T07:52:03.599Z,5.45
2022-08-25T07:54:34.230Z,5.35
2022-08-25T07:57:01.724Z,5.20
2022-08-25T07:59:28.227Z,5.13
2022-08-25T08:01:54.812Z,5.50
2022-08-25T08:04:22.296Z,6.00
2022-08-25T08:06:48.791Z,6.03
2022-08-25T08:09:16.168Z,6.10
2022-08-25T08:11:53.635Z,6.50
2022-08-25T08:14:20.634Z,6.60
2022-08-25T08:16:47.170Z,5.90
2022-08-25T08:19:13.729Z,6.10
2022-08-25T08:21:40.715Z,5.53
2022-08-25T08:24:19.786Z,5.90
2022-08-25T08:26:58.566Z,6.10
2022-08-25T08:29:26.144Z,7.43
2022-08-25T08:31:53.280Z,6.38
2022-08-25T08:34:19.883Z,6.50
2022-08-25T08:36:51.557Z,6.90
2022-08-25T08:39:18.199Z,6.78
2022-08-25T08:42:19.460Z,6.28
2022-08-25T08:45:02.494Z,6.40
2022-08-25T08:47:41.517Z,7.70
2022-08-25T08:50:32.931Z,6.93
2022-08-25T08:53:48.172Z,6.07
2022-08-25T08:56:20.130Z,7.32
2022-08-25T08:58:52.269Z,7.40
2022-08-25T09:01:33.652Z,6.97
2022-08-25T09:04:13.128Z,7.32
2022-08-25T09:06:47.821Z,7.10
2022-08-25T09:09:27.001Z,7.30
2022-08-25T09:12:18.727Z,7.45
2022-08-25T09:15:15.206Z,7.65
2022-08-25T09:18:03.293Z,8.00
2022-08-25T09:20:49.469Z,8.40
2022-08-25T09:23:25.300Z,8.57
2022-08-25T09:26:11.870Z,8.55
2022-08-25T09:28:51.542Z,8.27
2022-08-25T09:31:31.483Z,8.10
2022-08-25T09:34:02.189Z,8.07
2022-08-25T09:36:30.138Z,7.88
2022-08-25T09:38:57.881Z,7.57
2022-08-25T09:41:46.298Z,8.07
2022-08-25T09:44:26.067Z,7.88
2022-08-25T09:47:17.939Z,8.45
2022-08-25T09:50:05.481Z,8.40
2022-08-25T09:52:38.735Z,7.53
2022-08-25T09:55:07.961Z,8.35
2022-08-25T09:57:34.462Z,7.75
2022-08-25T10:00:28.523Z,9.05
2022-08-25T10:03:06.443Z,8.73
2022-08-25T10:05:40.807Z,8.90
2022-08-25T10:08:24.943Z,8.90
2022-08-25T10:10:57.585Z,8.60
2022-08-25T10:13:47.089Z,9.27
2022-08-25T10:16:36.117Z,8.52
2022-08-25T10:19:09.122Z,8.73
2022-08-25T10:21:40.219Z,8.80
2022-08-25T10:24:11.052Z,8.65
2022-08-25T10:27:21.768Z,8.77
2022-08-25T10:30:25.869Z,8.38
2022-08-25T10:33:09.483Z,8.80
2022-08-25T10:36:02.262Z,8.52
2022-08-25T10:38:36.519Z,8.95
2022-08-25T10:41:15.010Z,8.85
2022-08-25T10:43:44.508Z,9.35
2022-08-25T10:46:14.153Z,8.57
2022-08-25T10:48:59.074Z,8.77
2022-08-25T10:51:47.028Z,9.55
2022-08-25T10:54:17.671Z,8.57
2022-08-25T10:57:01.532Z,8.93
2022-08-25T10:59:52.091Z,9.75
2022-08-25T11:02:45.909Z,9.52
2022-08-25T11:05:24.631Z,9.30
2022-08-25T11:08:03.285Z,8.93
2022-08-25T11:10:40.486Z,9.60
2022-08-25T11:13:24.114Z,9.80
2022-08-25T11:18:44.436Z,9.23
2022-08-25T11:21:20.586Z,8.77
2022-08-25T11:24:05.627Z,8.10
2022-08-25T11:29:14.527Z,8.32
2022-08-25T11:31:52.127Z,7.80
2022-08-25T11:34:21.270Z,8.00
2022-08-25T11:37:00.994Z,7.32
2022-08-25T11:40:07.216Z,7.28
2022-08-25T11:43:11.623Z,7.97
2022-08-25T11:46:02.186Z,7.97
2022-08-25T11:49:00.731Z,8.45
2022-08-25T11:51:36.481Z,7.90
2022-08-25T11:54:37.226Z,8.38
2022-08-25T11:57:08.865Z,7.85
2022-08-25T11:59:51.486Z,7.40
2022-08-25T12:02:39.509Z,7.73
2022-08-25T12:05:35.282Z,7.35
2022-08-25T12:08:24.213Z,7.80
2022-08-25T12:11:11.162Z,7.30
2022-08-25T12:13:45.814Z,7.05
2022-08-25T12:16:49.991Z,7.15
2022-08-25T12:19:36.454Z,6.80
2022-08-25T12:22:04.484Z,7.65
2022-08-25T12:24:47.291Z,7.10
2022-08-25T12:27:35.350Z,6.00
2022-08-25T12:30:21.211Z,7.03
2022-08-25T12:33:12.173Z,7.60
2022-08-25T12:35:38.893Z,7.30
2022-08-25T12:38:19.003Z,8.38
2022-08-25T12:40:48.324Z,7.72
2022-08-25T12:43:24.846Z,7.93
2022-08-25T12:45:56.151Z,7.47
2022-08-25T12:48:26.829Z,7.70
2022-08-25T12:51:03.349Z,7.88
2022-08-25T12:53:58.828Z,7.53
2022-08-25T12:56:31.399Z,7.82
2022-08-25T12:59:15.339Z,7.33
2022-08-25T13:02:07.700Z,7.53
2022-08-25T13:05:14.461Z,7.35
2022-08-25T13:08:00.242Z,7.30
2022-08-25T13:10:54.223Z,7.68
2022-08-25T13:13:39.022Z,8.13
2022-08-25T13:16:10.025Z,7.50
2022-08-25T13:18:40.070Z,7.07
2022-08-25T13:21:15.522Z,7.68
2022-08-25T13:23:46.307Z,6.45
2022-08-25T13:26:25.539Z,7.30
2022-08-25T13:29:14.365Z,6.60
2022-08-25T13:32:03.055Z,6.55
2022-08-25T13:34:44.072Z,6.25
2022-08-25T13:37:32.306Z,6.47
2022-08-25T13:40:24.735Z,6.65
2022-08-25T13:43:01.168Z,6.30
2022-08-25T13:45:32.015Z,6.07
2022-08-25T13:48:03.423Z,6.50
2022-08-25T13:50:33.369Z,6.57
2022-08-25T13:53:08.630Z,6.50
2022-08-25T13:56:01.466Z,6.35
2022-08-25T13:58:45.043Z,6.03
2022-08-25T14:01:47.836Z,5.55
2022-08-25T14:04:21.355Z,5.55
2022-08-25T14:06:48.444Z,6.07
2022-08-25T14:09:18.537Z,6.10
2022-08-25T14:11:58.557Z,6.15
2022-08-25T14:14:25.009Z,5.85
2022-08-25T14:17:16.437Z,5.75
2022-08-25T14:19:52.140Z,5.90
2022-08-25T14:22:21.203Z,5.45
2022-08-25T14:24:47.968Z,5.80
2022-08-25T14:27:14.972Z,5.68
2022-08-25T14:29:41.472Z,5.63
2022-08-25T14:32:09.969Z,5.68
2022-08-25T14:34:39.504Z,5.28
2022-08-25T14:37:17.889Z,5.63
2022-08-25T14:39:44.995Z,5.22
2022-08-25T14:42:13.348Z,5.28
2022-08-25T14:44:39.911Z,5.30
2022-08-25T14:47:07.638Z,5.35
2022-08-25T14:49:38.456Z,5.03
2022-08-25T14:52:10.144Z,5.28
2022-08-25T14:54:42.014Z,4.95
2022-08-25T14:57:08.950Z,4.88
2022-08-25T14:59:43.126Z,5.00
2022-08-25T15:02:14.207Z,4.85
2022-08-25T15:04:48.925Z,4.88
2022-08-25T15:07:34.795Z,5.22
2022-08-25T15:10:01.332Z,5.10
2022-08-25T15:12:46.735Z,5.40
2022-08-25T15:15:14.609Z,5.13
2022-08-25T15:17:41.963Z,4.88
2022-08-25T15:20:11.928Z,5.13
2022-08-25T15:22:38.841Z,4.82
2022-08-25T15:25:08.298Z,5.20
2022-08-25T15:27:35.176Z,5.15
2022-08-25T15:30:04.144Z,5.30
2022-08-25T15:32:30.687Z,5.05
2022-08-25T15:34:57.644Z,5.15
2022-08-25T15:37:26.432Z,5.13
2022-08-25T15:39:52.986Z,4.80
2022-08-25T15:42:19.928Z,5.13
2022-08-25T15:44:53.331Z,5.25
2022-08-25T15:47:21.315Z,5.40
2022-08-25T15:49:47.913Z,5.53
2022-08-25T15:52:17.174Z,5.78
2022-08-25T15:54:46.200Z,5.57
2022-08-25T15:57:18.048Z,5.57
2022-08-25T15:59:54.619Z,6.05
2022-08-25T16:02:22.100Z,5.68
2022-08-25T16:04:48.707Z,5.22
2022-08-25T16:07:20.085Z,5.68
2022-08-25T16:09:51.310Z,5.57
2022-08-25T16:12:17.907Z,5.47
2022-08-25T16:14:45.278Z,6.35
2022-08-25T16:17:12.464Z,5.60
2022-08-25T16:19:43.607Z,6.50
2022-08-25T16:22:11.292Z,5.82
2022-08-25T16:24:40.326Z,6.03
2022-08-25T16:27:11.680Z,6.15
2022-08-25T16:29:43.896Z,6.47
2022-08-25T16:32:17.249Z,6.63
2022-08-25T16:34:44.429Z,6.10
2022-08-25T16:37:11.205Z,6.40
2022-08-25T16:39:39.943Z,6.32
2022-08-25T16:42:10.558Z,5.82
2022-08-25T16:44:38.955Z,6.45
2022-08-25T16:47:05.687Z,6.10
2022-08-25T16:49:38.180Z,6.05
2022-08-25T16:52:24.673Z,6.47
2022-08-25T16:55:13.790Z,6.72
2022-08-25T16:57:47.965Z,6.20
2022-08-25T17:00:18.247Z,6.13
2022-08-25T17:02:49.202Z,5.38
2022-08-25T17:05:16.444Z,6.15
2022-08-25T17:08:04.735Z,6.10
2022-08-25T17:10:34.846Z,5.80
2022-08-25T17:13:01.320Z,6.05
2022-08-25T17:15:30.555Z,6.25
2022-08-25T17:17:59.557Z,6.10
2022-08-25T17:20:27.859Z,6.18
2022-08-25T17:22:57.111Z,6.57
2022-08-25T17:25:23.713Z,6.05
2022-08-25T17:27:54.106Z,5.95
2022-08-25T17:30:23.160Z,6.18
2022-08-25T17:32:54.698Z,5.40
2022-08-25T17:35:21.492Z,6.50
2022-08-25T17:37:52.804Z,6.40
2022-08-25T17:40:21.718Z,5.43
2022-08-25T17:42:55.991Z,6.50
2022-08-25T17:45:23.244Z,6.30
2022-08-25T17:47:52.834Z,6.88
2022-08-25T17:50:20.436Z,6.07
2022-08-25T17:52:47.144Z,6.15
2022-08-25T17:55:14.146Z,5.82
2022-08-25T17:57:44.348Z,6.43
2022-08-25T18:00:15.626Z,6.50
2022-08-25T18:02:43.446Z,6.30
2022-08-25T18:05:13.552Z,6.50
2022-08-25T18:07:41.117Z,6.95
2022-08-25T18:10:11.620Z,6.70
2022-08-25T18:12:38.831Z,7.03
2022-08-25T18:15:06.750Z,7.22
2022-08-25T18:17:38.931Z,7.65
2022-08-25T18:20:11.111Z,6.90
2022-08-25T18:22:38.686Z,6.80
2022-08-25T18:25:06.955Z,6.78
2022-08-25T18:27:34.650Z,6.85
2022-08-25T18:30:01.754Z,6.85
2022-08-25T18:32:32.081Z,7.28
2022-08-25T18:35:04.765Z,6.68
2022-08-25T18:37:52.414Z,6.50
2022-08-25T18:40:25.599Z,6.70
2022-08-25T18:43:20.896Z,6.85
2022-08-25T18:45:48.025Z,6.43
2022-08-25T18:48:16.499Z,6.63
2022-08-25T18:50:46.513Z,7.38
2022-08-25T18:53:18.298Z,6.78
2022-08-25T18:55:58.085Z,7.10
2022-08-25T18:58:25.516Z,6.95
2022-08-25T19:00:54.827Z,7.30
2022-08-25T19:03:23.486Z,6.93
2022-08-25T19:05:52.823Z,7.35
2022-08-25T19:08:26.435Z,7.80
2022-08-25T19:10:54.211Z,7.80
2022-08-25T19:13:22.615Z,7.07
2022-08-25T19:15:50.934Z,7.72
2022-08-25T19:18:18.282Z,7.65
2022-08-25T19:20:45.143Z,7.97
2022-08-25T19:23:12.884Z,7.70
2022-08-25T19:25:42.237Z,7.68
2022-08-25T19:28:12.274Z,7.82
2022-08-25T19:30:50.014Z,7.97
2022-08-25T19:33:37.131Z,7.70
2022-08-25T19:36:08.835Z,7.72
2022-08-25T19:38:36.272Z,7.95
2022-08-25T19:41:12.984Z,8.10
2022-08-25T19:43:56.126Z,8.00
2022-08-25T19:46:38.340Z,7.70
2022-08-25T19:49:09.029Z,8.07
2022-08-25T19:51:44.055Z,8.43
2022-08-25T19:54:17.449Z,8.95
2022-08-25T19:56:54.406Z,7.95
2022-08-25T19:59:40.446Z,8.52
2022-08-25T20:02:15.421Z,9.02
2022-08-25T20:04:49.232Z,9.23
2022-08-25T20:07:18.950Z,9.35
2022-08-25T20:09:45.500Z,9.18
2022-08-25T20:12:12.860Z,8.65
2022-08-25T20:14:39.942Z,8.63
2022-08-25T20:17:14.581Z,8.60
2022-08-25T20:19:50.412Z,8.63
2022-08-25T20:22:18.231Z,8.70
2022-08-25T20:24:56.240Z,8.23
2022-08-25T20:27:28.456Z,8.43
2022-08-25T20:29:55.806Z,8.52
2022-08-25T20:32:23.353Z,8.20
2022-08-25T20:34:53.129Z,8.57
2022-08-25T20:37:22.459Z,8.40
2022-08-25T20:39:51.552Z,9.07
2022-08-25T20:42:18.689Z,8.40
2022-08-25T20:44:47.576Z,9.15
2022-08-25T20:47:20.455Z,8.35
2022-08-25T20:49:49.658Z,9.20
2022-08-25T20:52:19.564Z,9.00
2022-08-25T20:54:50.422Z,8.90
2022-08-25T20:57:25.442Z,8.93
2022-08-25T20:59:52.495Z,8.43
2022-08-25T21:02:20.224Z,8.90
2022-08-25T21:04:50.224Z,8.70
2022-08-25T21:07:19.864Z,9.05
2022-08-25T21:09:49.751Z,9.13
2022-08-25T21:12:16.442Z,8.52
2022-08-25T21:14:45.811Z,9.07
2022-08-25T21:17:14.553Z,9.18
2022-08-25T21:19:44.331Z,9.00
2022-08-25T21:22:11.505Z,9.75
2022-08-25T21:24:40.294Z,9.32
2022-08-25T21:27:07.006Z,9.25
2022-08-25T21:29:34.129Z,8.88
2022-08-25T21:32:03.427Z,9.40
2022-08-25T21:34:32.940Z,9.52
2022-08-25T21:37:00.207Z,9.50
2022-08-25T21:39:29.531Z,9.43
2022-08-25T21:42:00.058Z,9.07
2022-08-25T21:44:29.598Z,9.93
2022-08-25T21:46:56.812Z,8.77
2022-08-25T21:49:25.959Z,9.40
2022-08-25T21:52:01.033Z,9.55
2022-08-25T21:54:29.641Z,9.30
2022-08-25T21:57:04.791Z,9.10
2022-08-25T21:59:34.582Z,9.30
2022-08-25T22:02:07.760Z,9.00
2022-08-25T22:04:38.998Z,9.02
2022-08-25T22:07:05.932Z,9.77
2022-08-25T22:09:35.595Z,9.35
2022-08-25T22:12:02.802Z,8.88
2022-08-25T22:14:32.352Z,9.35
2022-08-25T22:17:01.948Z,10.05
2022-08-25T22:19:31.145Z,9.57
2022-08-25T22:22:00.261Z,9.73
2022-08-25T22:24:28.045Z,9.20
2022-08-25T22:26:58.443Z,9.38
2022-08-25T22:29:25.891Z,9.07
2022-08-25T22:32:02.177Z,9.60
2022-08-25T22:34:34.256Z,9.15
2022-08-25T22:37:04.800Z,9.55
2022-08-25T22:39:34.175Z,9.90
2022-08-25T22:42:06.316Z,9.63
2022-08-25T22:44:33.086Z,9.60
2022-08-25T22:46:59.585Z,9.75
2022-08-25T22:49:29.239Z,9.75
2022-08-25T22:51:56.720Z,9.77
2022-08-25T22:54:26.353Z,9.38
2022-08-25T22:56:53.806Z,10.48
2022-08-25T22:59:22.968Z,10.55
2022-08-25T23:01:52.291Z,10.30
2022-08-25T23:04:21.704Z,10.48
2022-08-25T23:06:49.240Z,9.98
2022-08-25T23:09:18.499Z,9.75
2022-08-25T23:11:45.008Z,9.88
2022-08-25T23:14:14.298Z,9.68
2022-08-25T23:16:43.108Z,10.13
2022-08-25T23:19:13.885Z,9.98
2022-08-25T23:22:02.140Z,9.55
2022-08-25T23:24:30.279Z,10.48
2022-08-25T23:26:59.072Z,9.70
2022-08-25T23:29:26.164Z,9.57
2022-08-25T23:31:53.693Z,9.68
2022-08-25T23:34:21.646Z,10.20
2022-08-25T23:36:48.838Z,10.52
2022-08-25T23:39:17.970Z,9.80
2022-08-25T23:41:44.500Z,10.07
2022-08-25T23:44:11.596Z,9.73
2022-08-25T23:46:39.314Z,10.25
2022-08-25T23:49:08.339Z,9.15
2022-08-25T23:51:38.886Z,10.43
2022-08-25T23:54:09.361Z,9.75
2022-08-25T23:56:44.842Z,10.07
2022-08-25T23:59:19.728Z,9.82
